Time;durP1;ratioP1;P1;durP2;ratioP2;P2;SDS_P1;SDS_P2;PMS_P1;PMS_P2;Temp;Humidity;BMP_temperature;BMP_pressure;BME280_temperature;BME280_humidity;BME280_pressure;Samples;Min_cycle;Max_cycle;Signal;HPM_P1;HPM_P2
2023/09/28 00:01:18;;;;;;;32.13;22.85;;;14.90;99.90;;;;;;5033214;28;20037;-69
2023/09/28 00:03:45;;;;;;;32.83;22.13;;;14.90;99.90;;;;;;5034450;28;20060;-68
2023/09/28 00:06:13;;;;;;;36.08;21.92;;;14.90;99.90;;;;;;5037649;28;20052;-64
2023/09/28 00:08:40;;;;;;;33.05;23.45;;;14.80;99.90;;;;;;5030414;28;20065;-69
2023/09/28 00:11:07;;;;;;;33.22;24.02;;;14.90;99.90;;;;;;5034364;28;20348;-65
2023/09/28 00:13:34;;;;;;;32.78;21.00;;;14.80;99.90;;;;;;5031810;28;20052;-70
2023/09/28 00:16:01;;;;;;;30.02;20.73;;;14.80;99.90;;;;;;5033763;28;20036;-67
2023/09/28 00:18:29;;;;;;;33.08;21.52;;;14.80;99.90;;;;;;5030314;28;20056;-64
2023/09/28 00:20:56;;;;;;;28.98;21.85;;;14.80;99.90;;;;;;5036620;28;20044;-68
2023/09/28 00:23:23;;;;;;;32.97;21.33;;;14.80;99.90;;;;;;5036378;28;20048;-68
2023/09/28 00:25:50;;;;;;;31.13;19.88;;;14.80;99.90;;;;;;5031175;28;20045;-69
2023/09/28 00:28:17;;;;;;;28.88;20.90;;;14.80;99.90;;;;;;5038255;28;20072;-68
2023/09/28 00:30:44;;;;;;;30.83;20.90;;;14.70;99.90;;;;;;5042562;28;20033;-66
2023/09/28 00:33:11;;;;;;;30.73;19.83;;;14.70;99.90;;;;;;5035273;28;20057;-66
2023/09/28 00:35:38;;;;;;;31.92;21.00;;;14.70;99.90;;;;;;5039269;28;20428;-65
2023/09/28 00:38:05;;;;;;;34.97;23.20;;;14.70;99.90;;;;;;5039519;28;20068;-69
2023/09/28 00:40:32;;;;;;;29.42;19.85;;;14.70;99.90;;;;;;5036597;28;20435;-68
2023/09/28 00:43:00;;;;;;;34.55;21.45;;;14.70;99.90;;;;;;5032897;28;20123;-64
2023/09/28 00:45:28;;;;;;;33.17;21.55;;;14.70;99.90;;;;;;5035456;28;20045;-66
2023/09/28 00:48:05;;;;;;;31.85;23.17;;;14.70;99.90;;;;;;5038473;28;20059;-67
2023/09/28 00:50:32;;;;;;;28.70;22.75;;;14.70;99.90;;;;;;5036641;28;20048;-70
2023/09/28 00:53:02;;;;;;;26.45;19.27;;;14.60;99.90;;;;;;5037910;28;20081;-65
2023/09/28 00:55:30;;;;;;;29.38;20.33;;;14.60;99.90;;;;;;5035550;28;20049;-65
2023/09/28 00:58:00;;;;;;;24.58;19.10;;;14.60;99.90;;;;;;5032691;28;20053;-65
2023/09/28 01:00:33;;;;;;;;;;;14.60;99.90;;;;;;5032712;28;20079;-68
2023/09/28 01:03:08;;;;;;;23.55;19.75;;;14.50;99.90;;;;;;5036705;28;19978;-68
2023/09/28 01:05:40;;;;;;;23.23;19.55;;;14.50;99.90;;;;;;5032871;28;20052;-69
2023/09/28 01:08:09;;;;;;;23.08;17.70;;;14.50;99.90;;;;;;5039248;28;20159;-67
2023/09/28 01:10:36;;;;;;;26.58;19.00;;;14.50;99.90;;;;;;5033714;28;20052;-67
2023/09/28 01:13:11;;;;;;;27.75;18.13;;;14.40;99.90;;;;;;5037747;28;20503;-63
2023/09/28 01:15:40;;;;;;;23.90;18.42;;;14.40;99.90;;;;;;5044185;28;20172;-69
2023/09/28 01:18:12;;;;;;;25.73;18.05;;;14.40;99.90;;;;;;5036952;28;20118;-66
2023/09/28 01:20:40;;;;;;;24.38;18.30;;;14.40;99.90;;;;;;5033210;28;20048;-66
2023/09/28 01:23:08;;;;;;;25.15;17.33;;;14.30;99.90;;;;;;5038195;28;20156;-67
2023/09/28 01:25:37;;;;;;;26.52;19.45;;;14.30;99.90;;;;;;5033099;28;20037;-69
2023/09/28 01:28:05;;;;;;;23.00;17.33;;;14.30;99.90;;;;;;5033546;28;20049;-66
2023/09/28 01:30:33;;;;;;;21.77;17.38;;;14.30;99.90;;;;;;5040447;28;20124;-67
2023/09/28 01:33:00;;;;;;;21.25;16.17;;;14.30;99.90;;;;;;5034326;28;20128;-63
2023/09/28 01:35:28;;;;;;;20.80;16.55;;;14.20;99.90;;;;;;5068061;28;20487;-67
2023/09/28 01:38:19;;;;;;;19.20;16.92;;;14.20;99.90;;;;;;5031301;28;20041;-65
2023/09/28 01:40:47;;;;;;;22.52;17.08;;;14.20;99.90;;;;;;5042773;28;20072;-65
2023/09/28 01:43:17;;;;;;;20.02;16.83;;;14.20;99.90;;;;;;5031594;28;20063;-68
2023/09/28 01:45:45;;;;;;;20.17;16.52;;;14.20;99.90;;;;;;5040016;28;20033;-68
2023/09/28 01:48:12;;;;;;;21.90;18.38;;;14.20;99.90;;;;;;5034908;28;20063;-66
2023/09/28 01:50:39;;;;;;;17.00;15.20;;;14.10;99.90;;;;;;5039625;28;20037;-67
2023/09/28 01:53:06;;;;;;;19.75;15.38;;;14.10;99.90;;;;;;5035809;28;20049;-64
2023/09/28 01:55:33;;;;;;;17.42;14.95;;;14.10;99.90;;;;;;5036736;28;20900;-68
2023/09/28 01:58:03;;;;;;;17.45;15.13;;;14.10;99.90;;;;;;5035330;28;20495;-70
2023/09/28 02:00:30;;;;;;;18.35;14.88;;;14.00;99.90;;;;;;5032811;28;20048;-69
2023/09/28 02:02:58;;;;;;;16.88;14.90;;;14.00;99.90;;;;;;5033235;28;20060;-70
2023/09/28 02:05:27;;;;;;;15.00;13.48;;;14.00;99.90;;;;;;5040719;28;20136;-67
2023/09/28 02:07:54;;;;;;;17.05;14.55;;;13.90;99.90;;;;;;5039571;28;20421;-64
2023/09/28 02:10:21;;;;;;;15.90;14.07;;;13.90;99.90;;;;;;5035290;28;20451;-63
2023/09/28 02:12:47;;;;;;;16.13;14.60;;;13.80;99.90;;;;;;5039111;28;20525;-63
2023/09/28 02:15:14;;;;;;;14.20;12.70;;;13.80;99.90;;;;;;5033171;28;20073;-63
2023/09/28 02:17:44;;;;;;;13.80;12.32;;;13.80;99.90;;;;;;5037516;28;20041;-68
2023/09/28 02:20:16;;;;;;;15.43;13.88;;;13.80;99.90;;;;;;5034759;28;20065;-64
2023/09/28 02:22:45;;;;;;;15.60;13.25;;;13.80;99.90;;;;;;5032428;28;20048;-70
2023/09/28 02:25:18;;;;;;;13.70;12.38;;;13.70;99.90;;;;;;5033730;28;20046;-64
2023/09/28 02:27:47;;;;;;;14.32;12.82;;;13.70;99.90;;;;;;5035744;28;20037;-67
2023/09/28 02:30:19;;;;;;;12.07;10.80;;;13.60;99.90;;;;;;5035082;28;20845;-68
2023/09/28 02:32:48;;;;;;;14.95;11.57;;;13.50;99.90;;;;;;5038876;28;20128;-64
2023/09/28 02:35:16;;;;;;;15.93;14.25;;;13.50;99.90;;;;;;5033219;28;20142;-73
2023/09/28 02:37:45;;;;;;;13.77;12.18;;;13.50;99.90;;;;;;5032262;28;20061;-65
2023/09/28 02:40:13;;;;;;;13.43;11.90;;;13.40;99.90;;;;;;5032778;28;20491;-66
2023/09/28 02:42:42;;;;;;;12.30;11.07;;;13.40;99.90;;;;;;5031321;28;20076;-64
2023/09/28 02:45:13;;;;;;;14.85;12.18;;;13.40;99.90;;;;;;5034170;28;20148;-68
2023/09/28 02:47:48;;;;;;;12.80;11.50;;;13.40;99.90;;;;;;5034549;28;20046;-70
2023/09/28 02:50:21;;;;;;;14.55;13.15;;;13.40;99.90;;;;;;5032904;28;20551;-69
2023/09/28 02:52:49;;;;;;;14.52;13.13;;;13.40;99.90;;;;;;5039506;28;20033;-68
2023/09/28 02:55:17;;;;;;;15.00;13.38;;;13.40;99.90;;;;;;5038822;28;20046;-67
2023/09/28 02:57:47;;;;;;;14.33;12.87;;;13.30;99.90;;;;;;5042410;28;20172;-64
2023/09/28 03:02:46;;;;;;;13.48;12.18;;;13.30;99.90;;;;;;5041866;28;20095;-66
2023/09/28 03:05:16;;;;;;;12.82;11.55;;;13.20;99.90;;;;;;5043304;28;20041;-65
2023/09/28 03:07:44;;;;;;;12.77;11.57;;;13.20;99.90;;;;;;5037822;28;20037;-64
2023/09/28 03:10:12;;;;;;;13.07;11.77;;;13.20;99.90;;;;;;5035502;28;20045;-63
2023/09/28 03:12:39;;;;;;;11.82;10.82;;;13.20;99.90;;;;;;5042766;28;20045;-71
2023/09/28 03:15:13;;;;;;;11.57;10.57;;;13.10;99.90;;;;;;5036362;28;20430;-66
2023/09/28 03:17:41;;;;;;;10.90;9.18;;;13.10;99.90;;;;;;5037450;28;20048;-63
2023/09/28 03:20:14;;;;;;;11.70;10.30;;;13.00;99.90;;;;;;5040716;28;20137;-66
2023/09/28 03:22:43;;;;;;;12.63;11.43;;;13.00;99.90;;;;;;5041395;28;20039;-66
2023/09/28 03:25:22;;;;;;;8.65;7.85;;;13.00;99.90;;;;;;5035328;28;20056;-73
2023/09/28 03:27:51;;;;;;;10.40;9.55;;;13.00;99.90;;;;;;5036240;28;20041;-69
2023/09/28 03:30:20;;;;;;;9.95;9.13;;;12.90;99.90;;;;;;5033368;28;20037;-64
2023/09/28 03:32:48;;;;;;;9.50;8.70;;;12.90;99.90;;;;;;5038924;28;20382;-67
2023/09/28 03:35:17;;;;;;;9.45;8.65;;;12.90;99.90;;;;;;5037242;28;20072;-66
2023/09/28 03:37:45;;;;;;;9.18;8.45;;;12.90;99.90;;;;;;5036930;28;20055;-66
2023/09/28 03:40:14;;;;;;;8.68;7.90;;;12.80;99.90;;;;;;5032380;28;20037;-64
2023/09/28 03:42:48;;;;;;;9.13;8.40;;;12.80;99.90;;;;;;5033450;28;20144;-70
2023/09/28 03:45:24;;;;;;;8.20;7.50;;;12.80;99.90;;;;;;5031955;28;20776;-66
2023/09/28 03:47:52;;;;;;;8.50;7.78;;;12.80;99.90;;;;;;5035514;28;20515;-70
2023/09/28 03:50:21;;;;;;;9.27;8.48;;;12.70;99.90;;;;;;5035683;28;20092;-64
2023/09/28 03:52:49;;;;;;;8.05;7.45;;;12.70;99.90;;;;;;5035888;28;20040;-66
2023/09/28 03:55:18;;;;;;;8.23;7.55;;;12.70;99.90;;;;;;5030999;28;20124;-69
2023/09/28 03:57:46;;;;;;;8.82;8.13;;;12.60;99.90;;;;;;5041359;28;20040;-63
2023/09/28 04:00:15;;;;;;;7.40;6.90;;;12.60;99.90;;;;;;5038929;28;20581;-70
2023/09/28 04:02:44;;;;;;;7.88;7.18;;;12.60;99.90;;;;;;5026397;28;20048;-67
2023/09/28 04:05:15;;;;;;;6.97;6.43;;;12.50;99.90;;;;;;5033943;28;20065;-65
2023/09/28 04:07:43;;;;;;;7.63;6.93;;;12.50;99.90;;;;;;5038093;28;20048;-63
2023/09/28 04:10:11;;;;;;;7.65;7.07;;;12.40;99.90;;;;;;5031576;28;20657;-65
2023/09/28 04:12:38;;;;;;;7.97;7.30;;;12.40;99.90;;;;;;5035755;28;20044;-67
2023/09/28 04:15:07;;;;;;;8.23;7.55;;;12.40;99.90;;;;;;5036403;28;20374;-63
2023/09/28 04:17:35;;;;;;;8.48;7.78;;;12.30;99.90;;;;;;5036346;28;20052;-68
2023/09/28 04:20:04;;;;;;;7.85;7.25;;;12.30;99.90;;;;;;5038544;28;20139;-67
2023/09/28 04:22:32;;;;;;;8.23;7.53;;;12.30;99.90;;;;;;5034943;28;20033;-63
2023/09/28 04:24:59;;;;;;;9.35;8.55;;;12.30;99.90;;;;;;5035166;28;20286;-66
2023/09/28 04:27:26;;;;;;;8.55;7.85;;;12.30;99.90;;;;;;5037028;28;20048;-65
2023/09/28 04:29:54;;;;;;;9.57;8.77;;;12.20;99.90;;;;;;5034058;28;20052;-65
2023/09/28 04:32:21;;;;;;;8.15;7.45;;;12.20;99.90;;;;;;5032776;28;20128;-66
2023/09/28 04:34:48;;;;;;;8.85;8.05;;;12.20;99.90;;;;;;5032717;28;20073;-72
2023/09/28 04:37:16;;;;;;;9.25;8.55;;;12.20;99.90;;;;;;5036410;28;20731;-63
2023/09/28 04:39:44;;;;;;;9.20;8.40;;;12.10;99.90;;;;;;5039639;28;20044;-64
2023/09/28 04:42:12;;;;;;;10.15;9.05;;;12.10;99.90;;;;;;5036438;28;20037;-67
2023/09/28 04:44:43;;;;;;;9.88;9.02;;;12.10;99.90;;;;;;5036498;28;20032;-63
2023/09/28 04:47:11;;;;;;;10.13;9.10;;;12.00;99.90;;;;;;5037895;28;20541;-65
2023/09/28 04:49:41;;;;;;;10.30;9.40;;;12.00;99.90;;;;;;5032410;28;20041;-66
2023/09/28 04:52:10;;;;;;;10.63;9.65;;;12.00;99.90;;;;;;5037678;28;20154;-64
2023/09/28 04:54:37;;;;;;;10.10;9.20;;;12.00;99.90;;;;;;5036850;28;20802;-65
2023/09/28 04:57:05;;;;;;;10.40;9.50;;;12.00;99.90;;;;;;5035079;28;20056;-64
2023/09/28 04:59:38;;;;;;;9.90;9.02;;;12.00;99.90;;;;;;5041248;28;20034;-65
2023/09/28 05:02:06;;;;;;;10.18;9.27;;;12.00;99.90;;;;;;5036012;28;20045;-66
2023/09/28 05:04:33;;;;;;;12.07;9.10;;;11.90;99.90;;;;;;5038818;28;20034;-63
2023/09/28 05:07:00;;;;;;;11.25;10.07;;;12.00;99.90;;;;;;5035660;28;20048;-66
2023/09/28 05:09:27;;;;;;;9.73;8.65;;;11.90;99.90;;;;;;5039903;28;20493;-63
2023/09/28 05:11:56;;;;;;;11.63;9.10;;;11.90;99.90;;;;;;5036128;28;20095;-70
2023/09/28 05:14:24;;;;;;;10.88;9.90;;;11.90;99.90;;;;;;5038513;28;20041;-68
2023/09/28 05:16:53;;;;;;;12.80;11.57;;;11.90;99.90;;;;;;5039136;28;20043;-69
2023/09/28 05:19:21;;;;;;;12.98;11.43;;;11.90;99.90;;;;;;5051722;28;20047;-67
2023/09/28 05:21:48;;;;;;;11.77;10.68;;;11.90;99.90;;;;;;5037827;28;20033;-63
2023/09/28 05:24:15;;;;;;;14.93;12.90;;;11.90;99.90;;;;;;5035480;28;20148;-75
2023/09/28 05:26:43;;;;;;;13.52;12.30;;;11.90;99.90;;;;;;5032975;28;20118;-65
2023/09/28 05:29:10;;;;;;;15.10;13.77;;;12.00;99.90;;;;;;5035882;28;20422;-72
2023/09/28 05:31:37;;;;;;;14.25;12.75;;;12.00;99.90;;;;;;5034795;28;20137;-65
2023/09/28 05:34:05;;;;;;;14.23;12.93;;;12.00;99.90;;;;;;5038451;28;20057;-65
2023/09/28 05:36:32;;;;;;;14.18;12.80;;;12.10;99.90;;;;;;5040294;28;20050;-63
2023/09/28 05:38:59;;;;;;;14.57;13.13;;;12.10;99.90;;;;;;5038837;28;20045;-70
2023/09/28 05:41:26;;;;;;;15.32;13.82;;;12.10;99.90;;;;;;5039325;28;20586;-63
2023/09/28 05:43:53;;;;;;;18.17;15.05;;;12.10;99.90;;;;;;5035672;28;20442;-66
2023/09/28 05:46:20;;;;;;;15.35;13.77;;;12.20;99.90;;;;;;5035722;28;20045;-64
2023/09/28 05:48:47;;;;;;;17.67;16.05;;;12.20;99.90;;;;;;5040927;28;20049;-70
2023/09/28 05:51:15;;;;;;;18.08;16.15;;;12.20;99.90;;;;;;5040488;28;20040;-71
2023/09/28 05:53:43;;;;;;;17.60;15.68;;;12.30;99.90;;;;;;5037689;28;20045;-69
2023/09/28 05:56:13;;;;;;;18.35;16.45;;;12.30;99.90;;;;;;5033353;28;20053;-64
2023/09/28 05:58:40;;;;;;;18.33;16.27;;;12.40;99.90;;;;;;5030996;28;20045;-63
2023/09/28 06:01:07;;;;;;;16.83;15.18;;;12.40;99.90;;;;;;5037878;28;20503;-65
2023/09/28 06:03:35;;;;;;;17.10;15.40;;;12.40;99.90;;;;;;5037245;28;20422;-67
2023/09/28 06:06:17;;;;;;;16.80;15.07;;;12.50;99.90;;;;;;5037866;28;20041;-67
2023/09/28 06:08:47;;;;;;;16.55;14.90;;;12.60;99.90;;;;;;5036867;28;20512;-67
2023/09/28 06:11:16;;;;;;;18.73;16.35;;;12.60;99.90;;;;;;5042539;28;20041;-66
2023/09/28 06:13:46;;;;;;;18.25;16.35;;;12.60;99.90;;;;;;5037603;28;20037;-72
2023/09/28 06:16:16;;;;;;;19.23;16.60;;;12.70;99.90;;;;;;5033131;28;20103;-69
2023/09/28 06:18:46;;;;;;;18.00;16.08;;;12.70;99.90;;;;;;5037186;28;20082;-64
2023/09/28 06:21:12;;;;;;;20.55;18.45;;;12.80;99.90;;;;;;5037543;28;20045;-68
2023/09/28 06:23:40;;;;;;;21.55;18.50;;;12.80;99.90;;;;;;5032341;28;20061;-68
2023/09/28 06:26:07;;;;;;;20.17;17.65;;;12.90;99.90;;;;;;5031616;28;20049;-67
2023/09/28 06:28:34;;;;;;;21.40;18.08;;;12.90;99.90;;;;;;5039096;28;20123;-69
2023/09/28 06:31:01;;;;;;;22.50;19.40;;;13.00;99.90;;;;;;5038988;28;20037;-68
2023/09/28 06:33:29;;;;;;;26.65;19.67;;;13.10;99.90;;;;;;5035504;28;20037;-65
2023/09/28 06:35:57;;;;;;;25.70;19.40;;;13.20;99.90;;;;;;5040929;28;20079;-66
2023/09/28 06:38:24;;;;;;;28.70;23.52;;;13.20;99.90;;;;;;5046488;28;20045;-67
2023/09/28 06:40:51;;;;;;;25.48;21.63;;;13.30;99.90;;;;;;5035476;28;20041;-66
2023/09/28 06:43:18;;;;;;;30.17;22.73;;;13.40;99.90;;;;;;5044377;28;20124;-63
2023/09/28 06:45:45;;;;;;;28.55;22.55;;;13.50;99.90;;;;;;5034729;28;20041;-71
2023/09/28 06:48:12;;;;;;;30.98;25.15;;;13.50;99.90;;;;;;5032586;28;20041;-64
2023/09/28 06:50:45;;;;;;;27.10;22.02;;;13.60;99.90;;;;;;5030231;28;20048;-74
2023/09/28 06:53:13;;;;;;;26.63;20.83;;;13.60;99.90;;;;;;5037108;28;20040;-65
2023/09/28 06:55:42;;;;;;;28.73;21.60;;;13.70;99.90;;;;;;5032287;28;20049;-67
2023/09/28 06:58:09;;;;;;;26.85;20.50;;;13.70;99.90;;;;;;5035487;28;20045;-65
2023/09/28 07:00:36;;;;;;;28.77;19.73;;;13.80;99.90;;;;;;5040501;28;20037;-65
2023/09/28 07:03:05;;;;;;;25.67;19.33;;;13.90;99.90;;;;;;5037689;28;20041;-68
2023/09/28 07:05:33;;;;;;;30.25;19.98;;;13.90;99.90;;;;;;5038451;28;20041;-68
2023/09/28 07:08:00;;;;;;;24.33;18.73;;;14.00;99.90;;;;;;5041679;28;20461;-68
2023/09/28 07:10:27;;;;;;;22.05;17.80;;;14.00;99.90;;;;;;5037687;28;20147;-64
2023/09/28 07:12:54;;;;;;;21.17;16.17;;;14.10;99.90;;;;;;5036218;28;20048;-67
2023/09/28 07:15:22;;;;;;;23.08;17.25;;;14.10;99.90;;;;;;5040384;28;20044;-68
2023/09/28 07:17:49;;;;;;;21.80;16.92;;;14.10;99.90;;;;;;5035399;28;20037;-66
2023/09/28 07:20:16;;;;;;;19.00;15.45;;;14.10;99.90;;;;;;5040149;28;20740;-70
2023/09/28 07:22:43;;;;;;;21.50;16.73;;;14.20;99.90;;;;;;5040256;28;20044;-66
2023/09/28 07:25:10;;;;;;;23.05;15.65;;;14.20;99.90;;;;;;5037345;28;20553;-64
2023/09/28 07:27:37;;;;;;;22.90;17.10;;;14.30;99.90;;;;;;5039738;28;20037;-67
2023/09/28 07:30:05;;;;;;;24.65;16.25;;;14.30;99.90;;;;;;5040047;28;20075;-64
2023/09/28 07:32:32;;;;;;;25.05;19.77;;;14.30;99.90;;;;;;5034008;28;20033;-66
2023/09/28 07:35:00;;;;;;;19.40;16.10;;;14.40;99.90;;;;;;5041171;28;20103;-69
2023/09/28 07:37:27;;;;;;;26.30;19.25;;;14.50;99.90;;;;;;5033600;28;20512;-69
2023/09/28 07:39:54;;;;;;;27.90;19.02;;;14.60;99.90;;;;;;5043178;28;20045;-69
2023/09/28 07:42:23;;;;;;;22.52;17.83;;;14.70;99.90;;;;;;5039115;28;20033;-64
2023/09/28 07:44:51;;;;;;;24.95;17.35;;;14.70;99.90;;;;;;5037977;28;20037;-70
2023/09/28 07:47:19;;;;;;;22.65;16.88;;;14.80;99.90;;;;;;5040261;28;20355;-64
2023/09/28 07:49:46;;;;;;;27.38;19.17;;;14.90;99.90;;;;;;5040863;28;20124;-67
2023/09/28 07:52:13;;;;;;;26.65;20.00;;;15.00;99.90;;;;;;5035696;28;20053;-66
2023/09/28 07:54:40;;;;;;;22.77;19.25;;;15.00;99.90;;;;;;5045272;28;20049;-66
2023/09/28 07:57:07;;;;;;;22.35;16.58;;;15.10;99.90;;;;;;5040913;28;20102;-64
2023/09/28 07:59:34;;;;;;;25.30;20.65;;;15.20;99.90;;;;;;5042350;28;20056;-68
2023/09/28 08:02:04;;;;;;;27.77;18.90;;;15.30;99.90;;;;;;5047453;28;20145;-65
2023/09/28 08:04:31;;;;;;;21.58;15.98;;;15.30;99.90;;;;;;5039769;28;20049;-65
2023/09/28 08:06:59;;;;;;;26.40;17.02;;;15.30;99.90;;;;;;5044110;28;20045;-63
2023/09/28 08:09:26;;;;;;;20.00;16.15;;;15.40;99.90;;;;;;5041077;28;20490;-71
2023/09/28 08:11:53;;;;;;;18.45;15.75;;;15.40;99.90;;;;;;5043844;28;20036;-67
2023/09/28 08:14:21;;;;;;;23.25;17.38;;;15.40;99.90;;;;;;5042946;28;20048;-65
2023/09/28 08:16:49;;;;;;;20.17;15.45;;;15.50;99.90;;;;;;5039653;28;20067;-70
2023/09/28 08:19:16;;;;;;;20.60;15.60;;;15.50;99.90;;;;;;5039838;28;20370;-66
2023/09/28 08:21:44;;;;;;;20.05;15.77;;;15.60;99.90;;;;;;5044203;28;20049;-69
2023/09/28 08:24:11;;;;;;;20.17;15.27;;;15.60;99.90;;;;;;5035515;28;20131;-63
2023/09/28 08:26:38;;;;;;;20.60;15.50;;;15.70;99.90;;;;;;5039347;28;20065;-69
2023/09/28 08:29:05;;;;;;;22.77;17.15;;;15.70;99.90;;;;;;5038873;28;20052;-65
2023/09/28 08:31:32;;;;;;;29.30;18.48;;;15.80;99.90;;;;;;5042471;28;20142;-64
2023/09/28 08:33:59;;;;;;;28.88;19.02;;;15.90;99.90;;;;;;5044665;28;20495;-66
2023/09/28 08:36:27;;;;;;;27.83;17.63;;;15.90;99.90;;;;;;5038816;28;20069;-63
2023/09/28 08:38:54;;;;;;;23.48;16.13;;;16.00;99.90;;;;;;5045047;28;20056;-64
2023/09/28 08:41:51;;;;;;;22.63;16.65;;;16.10;99.90;;;;;;5046594;28;20625;-67
2023/09/28 08:44:21;;;;;;;24.40;18.38;;;16.20;99.90;;;;;;5040925;28;20050;-64
2023/09/28 08:46:49;;;;;;;28.73;21.15;;;16.30;99.90;;;;;;5039441;28;20056;-68
2023/09/28 08:49:17;;;;;;;30.63;21.63;;;16.40;99.90;;;;;;5040794;28;20037;-64
2023/09/28 08:51:45;;;;;;;31.98;20.48;;;16.40;99.90;;;;;;5041125;28;20514;-64
2023/09/28 08:54:14;;;;;;;27.98;21.52;;;16.50;99.90;;;;;;5046463;28;20608;-66
2023/09/28 08:56:42;;;;;;;35.28;23.60;;;16.50;99.90;;;;;;5046374;28;20036;-66
2023/09/28 08:59:09;;;;;;;32.90;21.83;;;16.60;99.90;;;;;;5041477;28;20493;-65
2023/09/28 09:01:37;;;;;;;40.47;23.92;;;16.60;99.90;;;;;;5040244;28;20123;-64
2023/09/28 09:04:05;;;;;;;32.83;22.80;;;16.70;99.90;;;;;;5041408;28;20154;-64
2023/09/28 09:06:32;;;;;;;41.25;24.55;;;16.90;99.90;;;;;;5037941;28;20068;-66
2023/09/28 09:09:02;;;;;;;36.33;23.02;;;17.00;99.90;;;;;;5068797;28;20481;-63
2023/09/28 09:11:30;;;;;;;40.25;26.45;;;17.10;99.90;;;;;;5040394;28;20052;-71
2023/09/28 09:13:58;;;;;;;37.30;25.70;;;17.10;99.90;;;;;;5032883;28;20044;-64
2023/09/28 09:16:27;;;;;;;40.63;26.92;;;17.10;99.90;;;;;;5043163;28;20049;-65
2023/09/28 09:18:55;;;;;;;42.55;26.33;;;17.10;99.90;;;;;;5044510;28;20525;-66
2023/09/28 09:21:24;;;;;;;39.83;27.65;;;17.20;99.90;;;;;;5044077;28;20041;-65
2023/09/28 09:24:13;;;;;;;44.97;29.05;;;17.50;99.90;;;;;;5043739;28;20041;-64
2023/09/28 09:26:45;;;;;;;45.20;28.02;;;17.70;99.90;;;;;;5045049;28;20044;-66
2023/09/28 09:29:14;;;;;;;43.40;27.35;;;18.00;99.90;;;;;;5039915;28;20037;-66
2023/09/28 09:31:43;;;;;;;37.60;27.70;;;18.10;99.90;;;;;;5040037;28;20051;-65
2023/09/28 09:34:17;;;;;;;41.10;28.58;;;18.20;99.90;;;;;;5039306;28;20045;-65
2023/09/28 09:36:57;;;;;;;41.40;27.92;;;18.30;99.90;;;;;;5044593;28;20092;-66
2023/09/28 09:39:27;;;;;;;38.10;27.40;;;18.40;99.90;;;;;;5042318;28;20388;-66
2023/09/28 09:41:55;;;;;;;39.35;25.80;;;18.50;99.90;;;;;;5040951;28;20052;-66
2023/09/28 09:44:24;;;;;;;35.92;26.67;;;18.50;99.90;;;;;;5044603;28;20056;-66
2023/09/28 09:46:52;;;;;;;38.63;26.55;;;18.50;99.90;;;;;;5043074;28;20067;-68
2023/09/28 09:49:21;;;;;;;40.10;28.65;;;18.50;99.90;;;;;;5048604;28;20057;-66
2023/09/28 09:51:48;;;;;;;40.50;27.80;;;18.60;99.90;;;;;;5043856;28;20041;-79
2023/09/28 09:54:16;;;;;;;32.85;26.20;;;18.70;99.90;;;;;;5048826;28;20038;-63
2023/09/28 09:56:46;;;;;;;37.50;28.90;;;18.80;99.90;;;;;;5045345;28;20037;-64
2023/09/28 09:59:17;;;;;;;35.05;23.83;;;18.80;99.90;;;;;;5043406;28;20042;-70
2023/09/28 10:01:47;;;;;;;30.88;24.40;;;18.90;99.90;;;;;;5041700;28;20044;-66
2023/09/28 10:04:16;;;;;;;32.55;23.75;;;19.00;99.90;;;;;;5046248;28;20048;-65
2023/09/28 10:06:54;;;;;;;31.83;27.02;;;19.00;99.90;;;;;;5042352;28;20040;-68
2023/09/28 10:09:21;;;;;;;26.13;22.08;;;19.10;99.90;;;;;;5045567;28;20072;-64
2023/09/28 10:11:52;;;;;;;26.77;21.48;;;19.20;99.90;;;;;;5037736;28;21233;-65
2023/09/28 10:14:21;;;;;;;26.33;20.65;;;19.30;99.90;;;;;;5040077;28;20037;-64
2023/09/28 10:16:51;;;;;;;24.23;18.73;;;19.40;99.90;;;;;;5040323;28;20489;-67
2023/09/28 10:19:21;;;;;;;26.45;21.00;;;19.50;99.90;;;;;;5036310;28;20048;-67
2023/09/28 10:21:51;;;;;;;24.02;20.92;;;19.50;99.90;;;;;;5039464;28;20037;-66
2023/09/28 10:24:20;;;;;;;;;;;19.60;99.90;;;;;;5044383;28;20036;-64
2023/09/28 10:26:51;;;;;;;21.10;18.73;;;19.80;99.90;;;;;;5043548;28;19921;-67
2023/09/28 10:29:30;;;;;;;21.38;18.80;;;19.80;99.90;;;;;;5041566;28;20044;-64
2023/09/28 10:31:58;;;;;;;19.80;17.80;;;19.90;99.90;;;;;;5038204;28;20045;-64
2023/09/28 10:34:29;;;;;;;19.45;17.13;;;20.00;99.90;;;;;;5038191;28;20044;-64
2023/09/28 10:37:06;;;;;;;18.55;16.45;;;20.20;99.90;;;;;;5039871;28;20125;-69
2023/09/28 10:39:34;;;;;;;21.52;18.88;;;20.40;99.90;;;;;;5037568;28;20044;-67
2023/09/28 10:42:06;;;;;;;16.42;14.52;;;20.60;99.90;;;;;;5035309;28;20620;-67
2023/09/28 10:44:33;;;;;;;16.33;14.75;;;20.70;99.90;;;;;;5033050;28;20072;-68
2023/09/28 10:47:00;;;;;;;19.77;16.33;;;20.80;99.90;;;;;;5031370;28;20042;-68
2023/09/28 10:49:28;;;;;;;18.00;15.75;;;20.90;99.90;;;;;;5035141;28;20056;-66
2023/09/28 10:51:56;;;;;;;19.27;17.33;;;20.90;99.90;;;;;;5036773;28;20091;-68
2023/09/28 10:54:27;;;;;;;16.70;14.40;;;21.10;99.90;;;;;;5034010;28;20041;-66
2023/09/28 10:56:56;;;;;;;19.23;15.57;;;21.10;99.90;;;;;;5037891;28;20425;-70
2023/09/28 10:59:24;;;;;;;15.45;13.82;;;21.30;99.90;;;;;;5039746;28;20716;-66
2023/09/28 11:01:51;;;;;;;15.60;14.10;;;21.50;99.90;;;;;;5033506;28;20376;-70
2023/09/28 11:04:17;;;;;;;16.88;15.27;;;21.50;99.90;;;;;;5029549;28;20051;-65
2023/09/28 11:06:53;;;;;;;14.23;12.80;;;21.60;99.90;;;;;;5035735;28;20042;-65
2023/09/28 11:09:20;;;;;;;16.13;14.63;;;21.60;99.90;;;;;;5031695;28;20546;-69
2023/09/28 11:11:49;;;;;;;14.45;12.43;;;21.70;99.90;;;;;;5035606;28;20037;-67
2023/09/28 11:14:20;;;;;;;14.68;13.13;;;21.70;99.90;;;;;;5035605;28;20044;-66
2023/09/28 11:16:49;;;;;;;15.52;13.82;;;21.70;99.90;;;;;;5036689;28;20056;-65
2023/09/28 11:19:16;;;;;;;13.48;12.25;;;21.70;99.90;;;;;;5039211;28;20143;-66
2023/09/28 11:21:43;;;;;;;15.45;12.52;;;21.80;99.90;;;;;;5038262;28;20392;-67
2023/09/28 11:24:12;;;;;;;13.17;11.87;;;21.80;99.90;;;;;;5035815;28;20735;-68
2023/09/28 11:26:42;;;;;;;12.43;11.15;;;21.80;99.90;;;;;;5035115;28;20037;-70
2023/09/28 11:29:09;;;;;;;15.52;12.65;;;21.90;99.90;;;;;;5037691;28;20122;-72
2023/09/28 11:31:47;;;;;;;12.98;11.35;;;22.00;99.90;;;;;;5039585;28;20045;-70
2023/09/28 11:34:37;;;;;;;12.60;11.40;;;22.00;99.90;;;;;;5041399;28;20068;-65
2023/09/28 11:37:10;;;;;;;13.23;11.27;;;22.00;99.90;;;;;;5038050;28;20107;-69
2023/09/28 11:39:38;;;;;;;13.50;12.07;;;22.20;99.90;;;;;;5034559;28;20033;-69
2023/09/28 11:42:07;;;;;;;12.25;11.00;;;22.30;99.90;;;;;;5037413;28;20480;-70
2023/09/28 11:44:34;;;;;;;21.88;12.27;;;22.30;99.90;;;;;;5039220;28;20118;-65
2023/09/28 11:47:05;;;;;;;11.98;10.65;;;22.40;99.90;;;;;;5033823;28;20049;-67
2023/09/28 11:49:36;;;;;;;11.13;10.00;;;22.60;99.90;;;;;;5036718;28;20040;-67
2023/09/28 11:52:04;;;;;;;11.73;10.70;;;22.70;99.90;;;;;;5035556;28;20094;-67
2023/09/28 11:54:32;;;;;;;11.90;10.75;;;22.80;99.90;;;;;;5035731;28;20525;-67
2023/09/28 11:56:59;;;;;;;18.85;13.52;;;22.90;99.90;;;;;;5032856;28;20052;-70
2023/09/28 11:59:26;;;;;;;10.75;9.48;;;22.90;99.90;;;;;;5035580;28;20170;-67
2023/09/28 12:01:55;;;;;;;10.80;9.77;;;23.00;99.90;;;;;;5034610;28;20041;-67
2023/09/28 12:04:22;;;;;;;11.07;9.35;;;23.00;99.90;;;;;;5034978;28;20614;-65
2023/09/28 12:06:49;;;;;;;11.32;10.07;;;23.10;99.90;;;;;;5038061;28;20034;-70
2023/09/28 12:09:18;;;;;;;11.15;9.73;;;23.10;99.90;;;;;;5035006;28;20057;-68
2023/09/28 12:11:48;;;;;;;9.88;9.05;;;23.10;99.90;;;;;;5034121;28;20422;-73
2023/09/28 12:14:15;;;;;;;13.85;9.70;;;23.20;99.90;;;;;;5036012;28;20041;-72
2023/09/28 12:16:42;;;;;;;13.85;9.95;;;23.20;99.90;;;;;;5037360;28;20045;-69
2023/09/28 12:19:13;;;;;;;11.25;9.75;;;23.20;99.90;;;;;;5035976;28;20038;-67
2023/09/28 12:21:41;;;;;;;9.80;8.80;;;23.20;99.90;;;;;;5040232;28;20037;-68
2023/09/28 12:24:08;;;;;;;9.68;8.60;;;23.30;99.90;;;;;;5034103;28;20041;-66
2023/09/28 12:26:36;;;;;;;12.52;7.90;;;23.40;99.90;;;;;;5036837;28;20439;-64
2023/09/28 12:29:03;;;;;;;9.10;8.02;;;23.40;99.90;;;;;;5035486;28;20057;-67
2023/09/28 12:31:30;;;;;;;11.27;8.25;;;23.40;99.90;;;;;;5036024;28;20052;-65
2023/09/28 12:33:57;;;;;;;9.25;7.80;;;23.50;99.90;;;;;;5035521;28;20041;-75
2023/09/28 12:36:24;;;;;;;9.95;8.95;;;23.40;99.90;;;;;;5036107;28;20720;-67
2023/09/28 12:38:52;;;;;;;9.50;8.15;;;23.40;99.90;;;;;;5032410;28;20048;-72
2023/09/28 12:41:19;;;;;;;10.45;8.20;;;23.50;99.90;;;;;;5034031;28;20053;-69